createdAt,value
2022-07-31T00:01:33.429Z,97610.41
2022-07-31T00:04:35.542Z,97608.53
2022-07-31T00:07:37.555Z,97604.69
2022-07-31T00:10:39.579Z,97598.16
2022-07-31T00:13:57.321Z,97598.97
2022-07-31T00:17:00.910Z,97600.19
2022-07-31T00:20:04.443Z,97597.28
2022-07-31T00:23:06.430Z,97598.09
2022-07-31T00:26:08.919Z,97598.47
2022-07-31T00:29:11.250Z,97592.94
2022-07-31T00:32:18.430Z,97592.53
2022-07-31T00:35:20.825Z,97597.66
2022-07-31T00:38:29.859Z,97588.66
2022-07-31T00:41:40.593Z,97579.50
2022-07-31T00:44:42.578Z,97588.63
2022-07-31T00:47:49.727Z,97572.34
2022-07-31T00:50:58.579Z,97585.94
2022-07-31T00:54:00.559Z,97584.09
2022-07-31T00:57:05.973Z,97587.78
2022-07-31T01:00:08.818Z,97595.09
2022-07-31T01:03:10.871Z,97592.44
2022-07-31T01:06:13.457Z,97594.50
2022-07-31T01:09:20.631Z,97600.59
2022-07-31T01:12:52.337Z,97596.06
2022-07-31T01:15:57.558Z,97604.00
2022-07-31T01:19:00.146Z,97599.53
2022-07-31T01:22:41.194Z,97601.94
2022-07-31T01:26:04.712Z,97591.31
2022-07-31T01:29:21.518Z,97586.00
2022-07-31T01:32:29.806Z,97578.69
2022-07-31T01:35:41.541Z,97581.88
2022-07-31T01:38:47.892Z,97586.41
2022-07-31T01:41:50.316Z,97591.69
2022-07-31T01:44:56.179Z,97584.78
2022-07-31T01:48:00.815Z,97575.16
2022-07-31T01:51:09.050Z,97572.91
2022-07-31T01:54:12.952Z,97575.72
2022-07-31T01:57:17.251Z,97570.22
2022-07-31T02:00:34.581Z,97565.53
2022-07-31T02:03:43.787Z,97577.19
2022-07-31T02:06:50.074Z,97572.06
2022-07-31T02:09:58.335Z,97578.19
2022-07-31T02:13:05.848Z,97574.53
2022-07-31T02:16:10.350Z,97571.31
2022-07-31T02:19:12.607Z,97576.38
2022-07-31T02:22:15.674Z,97564.78
2022-07-31T02:25:26.043Z,97572.31
2022-07-31T02:28:28.650Z,97571.75
2022-07-31T02:31:32.096Z,97558.25
2022-07-31T02:34:35.042Z,97568.44
2022-07-31T02:37:38.937Z,97569.44
2022-07-31T02:40:42.472Z,97567.59
2022-07-31T02:43:45.097Z,97566.34
2022-07-31T02:46:53.716Z,97559.97
2022-07-31T02:49:58.197Z,97558.16
2022-07-31T02:53:00.086Z,97559.38
2022-07-31T02:56:04.687Z,97554.56
2022-07-31T02:59:10.800Z,97571.84
2022-07-31T03:02:36.795Z,97566.78
2022-07-31T03:05:41.014Z,97572.88
2022-07-31T03:08:45.712Z,97568.78
2022-07-31T03:11:51.226Z,97557.16
2022-07-31T03:14:54.779Z,97550.88
2022-07-31T03:17:58.819Z,97566.78
2022-07-31T03:21:10.002Z,97567.97
2022-07-31T03:24:12.316Z,97562.59
2022-07-31T03:27:14.837Z,97561.28
2022-07-31T03:30:18.796Z,97570.63
2022-07-31T03:33:22.288Z,97568.91
2022-07-31T03:36:24.309Z,97557.69
2022-07-31T03:39:26.238Z,97583.22
2022-07-31T03:42:32.505Z,97579.53
2022-07-31T03:45:35.375Z,97570.44
2022-07-31T03:48:38.498Z,97573.19
2022-07-31T03:51:41.163Z,97572.19
2022-07-31T03:54:44.495Z,97577.47
2022-07-31T03:57:52.220Z,97574.69
2022-07-31T04:00:56.563Z,97582.81
2022-07-31T04:04:01.795Z,97586.84
2022-07-31T04:07:12.009Z,97589.66
2022-07-31T04:10:14.440Z,97608.78
2022-07-31T04:13:19.182Z,97592.97
2022-07-31T04:16:21.737Z,97603.69
2022-07-31T04:19:24.100Z,97589.59
2022-07-31T04:22:26.681Z,97592.22
2022-07-31T04:25:30.268Z,97597.66
2022-07-31T04:29:02.472Z,97606.22
2022-07-31T04:32:05.530Z,97605.63
2022-07-31T04:35:13.831Z,97602.81
2022-07-31T04:38:17.268Z,97621.34
2022-07-31T04:41:21.732Z,97628.84
2022-07-31T04:44:24.488Z,97632.59
2022-07-31T04:47:31.612Z,97619.81
2022-07-31T04:50:33.687Z,97627.13
2022-07-31T04:53:38.443Z,97625.09
2022-07-31T04:56:43.892Z,97631.78
2022-07-31T04:59:59.074Z,97640.34
2022-07-31T05:03:08.668Z,97642.97
2022-07-31T05:06:12.478Z,97643.25
2022-07-31T05:09:23.632Z,97650.16
2022-07-31T05:12:30.780Z,97655.28
2022-07-31T05:15:36.464Z,97655.44
2022-07-31T05:18:41.238Z,97661.50
2022-07-31T05:22:02.904Z,97659.88
2022-07-31T05:25:32.122Z,97666.78
2022-07-31T05:28:35.082Z,97678.81
2022-07-31T05:31:37.224Z,97677.50
2022-07-31T05:34:40.344Z,97680.00
2022-07-31T05:37:42.647Z,97675.72
2022-07-31T05:40:46.347Z,97691.91
2022-07-31T05:44:12.734Z,97690.34
2022-07-31T05:47:18.092Z,97694.38
2022-07-31T05:50:22.294Z,97703.31
2022-07-31T05:53:25.349Z,97698.59
2022-07-31T05:56:47.924Z,97707.34
2022-07-31T05:59:53.810Z,97712.25
2022-07-31T06:02:57.004Z,97699.59
2022-07-31T06:06:17.671Z,97704.97
2022-07-31T06:09:21.170Z,97722.09
2022-07-31T06:12:24.039Z,97712.38
2022-07-31T06:15:27.092Z,97714.75
2022-07-31T06:18:29.231Z,97725.81
2022-07-31T06:21:31.253Z,97740.69
2022-07-31T06:24:33.850Z,97737.94
2022-07-31T06:27:38.669Z,97736.31
2022-07-31T06:30:43.995Z,97740.75
2022-07-31T06:33:48.379Z,97739.72
2022-07-31T06:36:52.095Z,97744.72
2022-07-31T06:39:58.540Z,97747.34
2022-07-31T06:43:20.724Z,97759.84
2022-07-31T06:47:04.039Z,97757.91
2022-07-31T06:50:25.937Z,97770.94
2022-07-31T06:53:36.211Z,97771.31
2022-07-31T06:56:39.488Z,97769.56
2022-07-31T06:59:42.738Z,97766.91
2022-07-31T07:02:45.504Z,97772.34
2022-07-31T07:05:48.601Z,97780.03
2022-07-31T07:08:52.265Z,97773.63
2022-07-31T07:11:57.072Z,97776.41
2022-07-31T07:15:01.333Z,97774.53
2022-07-31T07:18:04.733Z,97773.41
2022-07-31T07:21:15.987Z,97777.03
2022-07-31T07:24:19.908Z,97770.66
2022-07-31T07:27:29.775Z,97785.53
2022-07-31T07:30:32.554Z,97779.88
2022-07-31T07:33:41.438Z,97781.81
2022-07-31T07:36:55.646Z,97790.69
2022-07-31T07:40:05.588Z,97785.34
2022-07-31T07:43:08.384Z,97786.16
2022-07-31T07:46:11.041Z,97789.28
2022-07-31T07:49:17.161Z,97784.06
2022-07-31T07:52:28.808Z,97784.38
2022-07-31T07:55:54.633Z,97784.50
2022-07-31T07:59:15.541Z,97780.47
2022-07-31T08:02:37.540Z,97782.47
2022-07-31T08:05:40.897Z,97788.44
2022-07-31T08:08:49.337Z,97784.72
2022-07-31T08:12:11.444Z,97798.34
2022-07-31T08:15:32.893Z,97784.97
2022-07-31T08:18:43.578Z,97783.72
2022-07-31T08:21:45.910Z,97781.59
2022-07-31T08:24:48.518Z,97789.94
2022-07-31T08:27:51.538Z,97789.72
2022-07-31T08:30:57.098Z,97793.28
2022-07-31T08:33:59.879Z,97789.06
2022-07-31T08:37:51.011Z,97808.84
2022-07-31T08:40:26.144Z,97815.44
2022-07-31T08:44:03.097Z,97814.97
2022-07-31T08:46:56.197Z,97821.28
2022-07-31T08:49:58.962Z,97819.34
2022-07-31T08:53:04.313Z,97813.13
2022-07-31T08:56:27.993Z,97819.06
2022-07-31T08:59:30.554Z,97826.41
2022-07-31T09:02:33.509Z,97819.28
2022-07-31T09:05:54.613Z,97824.41
2022-07-31T09:08:57.180Z,97826.19
2022-07-31T09:11:59.565Z,97821.06
2022-07-31T09:15:30.421Z,97826.28
2022-07-31T09:18:35.999Z,97830.91
2022-07-31T09:21:44.312Z,97834.56
2022-07-31T09:24:46.886Z,97841.50
2022-07-31T09:27:50.050Z,97839.66
2022-07-31T09:30:57.027Z,97834.06
2022-07-31T09:34:30.918Z,97838.72
2022-07-31T09:37:50.844Z,97843.91
2022-07-31T09:41:56.217Z,97852.22
2022-07-31T09:45:31.362Z,97845.03
2022-07-31T09:48:34.525Z,97841.00
2022-07-31T09:51:45.269Z,97841.88
2022-07-31T09:55:14.351Z,97848.44
2022-07-31T09:58:21.605Z,97845.78
2022-07-31T10:01:24.396Z,97850.75
2022-07-31T10:04:26.633Z,97854.34
2022-07-31T10:07:32.487Z,97853.56
2022-07-31T10:10:46.762Z,97858.56
2022-07-31T10:14:10.679Z,97858.25
2022-07-31T10:17:15.240Z,97857.75
2022-07-31T10:20:36.827Z,97860.81
2022-07-31T10:23:45.910Z,97854.59
2022-07-31T10:27:00.151Z,97852.31
2022-07-31T10:30:08.060Z,97865.69
2022-07-31T10:33:41.837Z,97853.22
2022-07-31T10:37:11.275Z,97858.03
2022-07-31T10:40:42.996Z,97864.06
2022-07-31T10:43:53.470Z,97857.28
2022-07-31T10:47:18.253Z,97865.00
2022-07-31T10:51:03.327Z,97871.25
2022-07-31T10:54:24.020Z,97872.53
2022-07-31T10:57:56.254Z,97880.41
2022-07-31T11:01:32.167Z,97881.97
2022-07-31T11:05:06.930Z,97887.88
2022-07-31T11:08:28.513Z,97883.03
2022-07-31T11:11:39.298Z,97891.63
2022-07-31T11:15:00.447Z,97888.28
2022-07-31T11:18:38.140Z,97893.13
2022-07-31T11:21:42.576Z,97887.22
2022-07-31T11:24:55.698Z,97882.22
2022-07-31T11:28:09.623Z,97888.09
2022-07-31T11:31:12.265Z,97886.56
2022-07-31T11:34:14.399Z,97882.88
2022-07-31T11:37:18.109Z,97887.81
2022-07-31T11:40:22.257Z,97890.88
2022-07-31T11:43:26.220Z,97891.78
2022-07-31T11:46:32.323Z,97888.53
2022-07-31T11:49:48.374Z,97887.63
2022-07-31T11:52:51.511Z,97892.28
2022-07-31T11:55:57.637Z,97890.03
2022-07-31T11:58:59.709Z,97889.44
2022-07-31T12:02:12.373Z,97893.31
2022-07-31T12:05:14.929Z,97899.81
2022-07-31T12:08:17.697Z,97902.75
2022-07-31T12:11:20.923Z,97904.69
2022-07-31T12:14:37.685Z,97893.69
2022-07-31T12:17:41.492Z,97903.53
2022-07-31T12:20:55.856Z,97900.25
2022-07-31T12:23:58.613Z,97896.19
2022-07-31T12:27:00.979Z,97896.53
2022-07-31T12:30:14.134Z,97895.31
2022-07-31T12:33:18.046Z,97898.69
2022-07-31T12:36:20.789Z,97896.09
2022-07-31T12:39:23.127Z,97896.28
2022-07-31T12:42:41.289Z,97892.69
2022-07-31T12:45:45.352Z,97899.06
2022-07-31T12:48:47.654Z,97903.16
2022-07-31T12:51:50.732Z,97895.00
2022-07-31T12:54:53.253Z,97881.59
2022-07-31T12:57:55.809Z,97875.97
2022-07-31T13:00:57.944Z,97873.06
2022-07-31T13:04:00.976Z,97875.75
2022-07-31T13:07:06.530Z,97873.59
2022-07-31T13:10:18.941Z,97871.84
2022-07-31T13:13:25.958Z,97870.81
2022-07-31T13:16:28.177Z,97871.63
2022-07-31T13:19:31.778Z,97868.78
2022-07-31T13:22:34.880Z,97871.63
2022-07-31T13:25:36.931Z,97871.22
2022-07-31T13:28:39.989Z,97858.56
2022-07-31T13:31:42.207Z,97859.78
2022-07-31T13:34:44.445Z,97853.66
2022-07-31T13:37:47.244Z,97858.34
2022-07-31T13:41:09.913Z,97847.53
2022-07-31T13:44:13.332Z,97854.47
2022-07-31T13:47:15.791Z,97850.38
2022-07-31T13:50:17.875Z,97854.88
2022-07-31T13:53:20.145Z,97849.16
2022-07-31T13:56:42.012Z,97851.00
2022-07-31T13:59:45.060Z,97846.28
2022-07-31T14:02:47.477Z,97837.69
2022-07-31T14:05:51.444Z,97845.06
2022-07-31T14:08:53.463Z,97847.31
2022-07-31T14:11:56.102Z,97848.53
2022-07-31T14:14:58.493Z,97857.34
2022-07-31T14:18:02.410Z,97849.97
2022-07-31T14:21:08.671Z,97854.88
2022-07-31T14:24:10.710Z,97851.19
2022-07-31T14:27:13.032Z,97842.19
2022-07-31T14:30:19.862Z,97841.41
2022-07-31T14:33:22.312Z,97838.94
2022-07-31T14:36:24.378Z,97840.53
2022-07-31T14:39:26.700Z,97840.97
2022-07-31T14:42:29.088Z,97839.72
2022-07-31T14:45:31.559Z,97839.28
2022-07-31T14:48:41.216Z,97840.06
2022-07-31T14:51:43.215Z,97838.47
2022-07-31T14:54:47.654Z,97843.78
2022-07-31T14:57:50.560Z,97842.06
2022-07-31T15:00:52.911Z,97840.03
2022-07-31T15:03:54.912Z,97842.13
2022-07-31T15:07:13.033Z,97846.69
2022-07-31T15:10:19.359Z,97843.47
2022-07-31T15:13:21.787Z,97854.06
2022-07-31T15:16:23.859Z,97846.16
2022-07-31T15:19:26.250Z,97842.59
2022-07-31T15:22:28.538Z,97843.09
2022-07-31T15:25:30.913Z,97837.69
2022-07-31T15:28:33.184Z,97836.84
2022-07-31T15:31:35.339Z,97840.28
2022-07-31T15:34:39.263Z,97838.81
2022-07-31T15:37:44.269Z,97836.00
2022-07-31T15:40:50.537Z,97834.50
2022-07-31T15:43:52.725Z,97836.84
2022-07-31T15:46:55.106Z,97835.41
2022-07-31T15:50:00.016Z,97834.97
2022-07-31T15:53:03.557Z,97830.38
2022-07-31T15:56:06.198Z,97823.00
2022-07-31T15:59:08.513Z,97822.00
2022-07-31T16:02:12.844Z,97825.78
2022-07-31T16:05:21.479Z,97819.06
2022-07-31T16:08:28.944Z,97818.25
2022-07-31T16:12:03.879Z,97814.97
2022-07-31T16:15:00.349Z,97809.22
2022-07-31T16:18:03.312Z,97803.13
2022-07-31T16:21:05.581Z,97801.50
2022-07-31T16:24:07.709Z,97800.44
2022-07-31T16:27:10.324Z,97812.75
2022-07-31T16:30:13.866Z,97806.22
2022-07-31T16:33:17.578Z,97806.66
2022-07-31T16:36:27.115Z,97802.19
2022-07-31T16:39:31.685Z,97810.00
2022-07-31T16:42:33.815Z,97803.94
2022-07-31T16:45:38.842Z,97805.34
2022-07-31T16:48:41.279Z,97800.13
2022-07-31T16:51:43.321Z,97804.09
2022-07-31T16:54:46.281Z,97806.66
2022-07-31T16:57:48.255Z,97794.97
2022-07-31T17:00:50.534Z,97799.91
2022-07-31T17:04:00.106Z,97798.31
2022-07-31T17:07:04.539Z,97805.38
2022-07-31T17:10:07.646Z,97800.53
2022-07-31T17:13:11.982Z,97809.19
2022-07-31T17:16:15.688Z,97802.69
2022-07-31T17:19:42.793Z,97806.41
2022-07-31T17:22:44.857Z,97808.56
2022-07-31T17:25:53.261Z,97808.19
2022-07-31T17:28:55.337Z,97806.53
2022-07-31T17:31:59.833Z,97799.66
2022-07-31T17:35:06.398Z,97806.41
2022-07-31T17:38:08.784Z,97811.72
2022-07-31T17:41:25.534Z,97811.53
2022-07-31T17:44:28.255Z,97817.81
2022-07-31T17:47:30.567Z,97822.47
2022-07-31T17:50:33.155Z,97822.41
2022-07-31T17:53:54.450Z,97817.84
2022-07-31T17:57:03.885Z,97832.06
2022-07-31T18:00:12.842Z,97822.00
2022-07-31T18:03:19.960Z,97833.16
2022-07-31T18:06:31.033Z,97824.94
2022-07-31T18:09:38.197Z,97828.44
2022-07-31T18:12:57.584Z,97836.31
2022-07-31T18:16:06.707Z,97838.69
2022-07-31T18:19:13.826Z,97840.91
2022-07-31T18:22:19.297Z,97832.16
2022-07-31T18:25:30.365Z,97837.78
2022-07-31T18:28:37.028Z,97843.69
2022-07-31T18:31:47.217Z,97843.25
2022-07-31T18:34:49.370Z,97846.66
2022-07-31T18:37:52.670Z,97844.75
2022-07-31T18:40:56.198Z,97836.06
2022-07-31T18:43:58.254Z,97851.69
2022-07-31T18:47:00.482Z,97848.59
2022-07-31T18:51:00.116Z,97853.97
2022-07-31T18:53:25.964Z,97856.75
2022-07-31T18:56:30.882Z,97858.13
2022-07-31T18:59:36.887Z,97862.94
2022-07-31T19:02:43.475Z,97856.38
2022-07-31T19:05:48.979Z,97869.72
2022-07-31T19:08:52.777Z,97867.25
2022-07-31T19:11:58.600Z,97880.66
2022-07-31T19:15:03.301Z,97875.53
2022-07-31T19:18:08.293Z,97879.91
2022-07-31T19:21:22.687Z,97885.03
2022-07-31T19:24:33.750Z,97882.56
2022-07-31T19:27:46.984Z,97893.22
2022-07-31T19:30:52.742Z,97882.94
2022-07-31T19:33:54.992Z,97884.41
2022-07-31T19:36:57.679Z,97880.75
2022-07-31T19:40:00.053Z,97889.59
2022-07-31T19:43:03.164Z,97875.56
2022-07-31T19:46:11.565Z,97878.44
2022-07-31T19:49:21.032Z,97881.09
2022-07-31T19:52:23.383Z,97880.09
2022-07-31T19:55:25.908Z,97888.56
2022-07-31T19:58:28.237Z,97888.94
2022-07-31T20:01:30.735Z,97881.66
2022-07-31T20:04:33.346Z,97886.22
2022-07-31T20:07:35.583Z,97886.75
2022-07-31T20:10:38.289Z,97881.28
2022-07-31T20:13:40.851Z,97883.66
2022-07-31T20:16:47.795Z,97883.66
2022-07-31T20:20:14.491Z,97883.22
2022-07-31T20:23:11.757Z,97876.19
2022-07-31T20:26:14.520Z,97876.56
2022-07-31T20:29:17.034Z,97874.28
2022-07-31T20:32:19.180Z,97872.72
2022-07-31T20:35:33.093Z,97872.34
2022-07-31T20:38:48.597Z,97866.72
2022-07-31T20:41:51.405Z,97874.38
2022-07-31T20:44:53.696Z,97874.84
2022-07-31T20:47:57.164Z,97869.91
2022-07-31T20:51:00.394Z,97874.09
2022-07-31T20:54:03.095Z,97884.66
2022-07-31T20:57:05.229Z,97872.16
2022-07-31T21:00:08.212Z,97875.06
2022-07-31T21:03:16.883Z,97873.97
2022-07-31T21:06:21.105Z,97863.13
2022-07-31T21:09:23.808Z,97875.06
2022-07-31T21:12:29.642Z,97856.72
2022-07-31T21:15:43.316Z,97862.47
2022-07-31T21:18:48.146Z,97872.94
2022-07-31T21:21:51.445Z,97867.91
2022-07-31T21:24:53.733Z,97859.34
2022-07-31T21:27:59.939Z,97864.16
2022-07-31T21:31:02.322Z,97865.84
2022-07-31T21:34:05.240Z,97872.31
2022-07-31T21:37:07.597Z,97865.22
2022-07-31T21:40:10.333Z,97871.00
2022-07-31T21:43:16.616Z,97871.19
2022-07-31T21:46:22.902Z,97870.91
2022-07-31T21:49:26.050Z,97867.44
2022-07-31T21:52:30.161Z,97871.91
2022-07-31T21:55:35.917Z,97883.28
2022-07-31T21:58:41.004Z,97875.56
2022-07-31T22:01:57.733Z,97880.03
2022-07-31T22:05:22.601Z,97882.81
2022-07-31T22:08:24.679Z,97884.47
2022-07-31T22:11:26.915Z,97890.09
2022-07-31T22:14:28.906Z,97886.47
2022-07-31T22:17:30.847Z,97892.91
2022-07-31T22:20:33.111Z,97891.63
2022-07-31T22:23:36.406Z,97885.47
2022-07-31T22:26:38.857Z,97892.84
2022-07-31T22:29:41.083Z,97884.81
2022-07-31T22:32:43.477Z,97889.75
2022-07-31T22:35:45.536Z,97886.41
2022-07-31T22:39:01.009Z,97890.31
2022-07-31T22:42:03.302Z,97882.94
2022-07-31T22:45:06.506Z,97868.91
2022-07-31T22:48:09.793Z,97866.28
2022-07-31T22:51:14.370Z,97865.91
2022-07-31T22:54:17.331Z,97867.22
2022-07-31T22:57:19.201Z,97863.44
2022-07-31T23:00:21.900Z,97867.78
2022-07-31T23:03:23.766Z,97866.16
2022-07-31T23:06:31.381Z,97862.94
2022-07-31T23:09:36.367Z,97861.34
2022-07-31T23:12:38.722Z,97865.50
2022-07-31T23:15:41.583Z,97868.72
2022-07-31T23:18:43.767Z,97858.84
2022-07-31T23:21:45.864Z,97868.31
2022-07-31T23:24:48.325Z,97857.28
2022-07-31T23:27:50.564Z,97854.47
2022-07-31T23:30:53.120Z,97855.94
2022-07-31T23:33:55.258Z,97850.66
2022-07-31T23:36:57.465Z,97851.94
2022-07-31T23:39:59.752Z,97856.72
2022-07-31T23:43:02.632Z,97851.84
2022-07-31T23:46:05.492Z,97855.59
2022-07-31T23:49:08.666Z,97851.63
2022-07-31T23:52:11.024Z,97852.53
2022-07-31T23:55:13.364Z,97854.22
2022-07-31T23:58:15.237Z,97855.53
